sensor_id;sensor_type;location;lat;lon;timestamp;pressure;altitude;pressure_sealevel;temperature;humidity
49645;BME280;36494;50.730;-1.932;2023-05-15T00:01:18;101309.55;;;12.38;100.00
49645;BME280;36494;50.730;-1.932;2023-05-15T00:03:43;101311.13;;;12.40;100.00
49645;BME280;36494;50.730;-1.932;2023-05-15T00:06:08;101309.98;;;12.34;100.00
49645;BME280;36494;50.730;-1.932;2023-05-15T00:08:34;101307.70;;;12.32;100.00
49645;BME280;36494;50.730;-1.932;2023-05-15T00:10:59;101308.73;;;12.33;100.00
49645;BME280;36494;50.730;-1.932;2023-05-15T00:13:25;101307.02;;;12.37;100.00
49645;BME280;36494;50.730;-1.932;2023-05-15T00:15:50;101305.80;;;12.36;100.00
49645;BME280;36494;50.730;-1.932;2023-05-15T00:18:16;101306.27;;;12.23;100.00
49645;BME280;36494;50.730;-1.932;2023-05-15T00:20:41;101302.69;;;12.22;100.00
49645;BME280;36494;50.730;-1.932;2023-05-15T00:23:06;101299.98;;;12.23;100.00
49645;BME280;36494;50.730;-1.932;2023-05-15T00:25:32;101300.02;;;12.17;100.00
49645;BME280;36494;50.730;-1.932;2023-05-15T00:27:57;101301.22;;;12.10;100.00
49645;BME280;36494;50.730;-1.932;2023-05-15T00:30:22;101297.57;;;12.13;100.00
49645;BME280;36494;50.730;-1.932;2023-05-15T00:32:47;101297.58;;;12.13;100.00
49645;BME280;36494;50.730;-1.932;2023-05-15T00:35:13;101296.95;;;12.07;100.00
49645;BME280;36494;50.730;-1.932;2023-05-15T00:37:38;101297.16;;;12.12;100.00
49645;BME280;36494;50.730;-1.932;2023-05-15T00:40:04;101298.19;;;12.07;100.00
49645;BME280;36494;50.730;-1.932;2023-05-15T00:42:29;101299.54;;;12.02;100.00
49645;BME280;36494;50.730;-1.932;2023-05-15T00:44:55;101296.47;;;12.07;100.00
49645;BME280;36494;50.730;-1.932;2023-05-15T00:47:20;101297.10;;;12.06;100.00
49645;BME280;36494;50.730;-1.932;2023-05-15T00:49:44;101295.28;;;12.00;100.00
49645;BME280;36494;50.730;-1.932;2023-05-15T00:52:10;101294.81;;;12.06;100.00
49645;BME280;36494;50.730;-1.932;2023-05-15T00:54:36;101297.99;;;11.97;100.00
49645;BME280;36494;50.730;-1.932;2023-05-15T00:57:03;101293.62;;;12.03;100.00
49645;BME280;36494;50.730;-1.932;2023-05-15T00:59:27;101293.46;;;11.99;100.00
49645;BME280;36494;50.730;-1.932;2023-05-15T01:01:52;101292.90;;;12.06;100.00
49645;BME280;36494;50.730;-1.932;2023-05-15T01:04:17;101299.00;;;11.97;100.00
49645;BME280;36494;50.730;-1.932;2023-05-15T01:06:43;101299.83;;;12.00;100.00
49645;BME280;36494;50.730;-1.932;2023-05-15T01:09:09;101296.56;;;11.99;100.00
49645;BME280;36494;50.730;-1.932;2023-05-15T01:11:37;101294.73;;;12.06;100.00
49645;BME280;36494;50.730;-1.932;2023-05-15T01:14:02;101294.86;;;12.00;100.00
49645;BME280;36494;50.730;-1.932;2023-05-15T01:16:25;101292.69;;;12.04;100.00
49645;BME280;36494;50.730;-1.932;2023-05-15T01:18:51;101298.17;;;11.97;100.00
49645;BME280;36494;50.730;-1.932;2023-05-15T01:23:49;101302.62;;;11.92;100.00
49645;BME280;36494;50.730;-1.932;2023-05-15T01:26:28;101298.63;;;11.97;100.00
49645;BME280;36494;50.730;-1.932;2023-05-15T01:28:36;101299.93;;;11.98;100.00
49645;BME280;36494;50.730;-1.932;2023-05-15T01:30:58;101300.13;;;12.00;100.00
49645;BME280;36494;50.730;-1.932;2023-05-15T01:33:25;101303.59;;;11.90;100.00
49645;BME280;36494;50.730;-1.932;2023-05-15T01:35:52;101303.82;;;11.97;100.00
49645;BME280;36494;50.730;-1.932;2023-05-15T01:38:18;101301.58;;;11.95;100.00
49645;BME280;36494;50.730;-1.932;2023-05-15T01:40:39;101298.94;;;11.88;100.00
49645;BME280;36494;50.730;-1.932;2023-05-15T01:43:07;101298.73;;;11.88;100.00
49645;BME280;36494;50.730;-1.932;2023-05-15T01:45:31;101298.12;;;11.90;100.00
49645;BME280;36494;50.730;-1.932;2023-05-15T01:47:54;101302.11;;;11.96;100.00
49645;BME280;36494;50.730;-1.932;2023-05-15T01:50:20;101300.38;;;11.83;100.00
49645;BME280;36494;50.730;-1.932;2023-05-15T01:52:48;101301.65;;;11.88;100.00
49645;BME280;36494;50.730;-1.932;2023-05-15T01:55:13;101303.59;;;11.91;100.00
49645;BME280;36494;50.730;-1.932;2023-05-15T01:57:36;101300.60;;;11.75;100.00
49645;BME280;36494;50.730;-1.932;2023-05-15T02:00:12;101302.87;;;11.87;100.00
49645;BME280;36494;50.730;-1.932;2023-05-15T02:02:27;101301.81;;;11.83;100.00
49645;BME280;36494;50.730;-1.932;2023-05-15T02:04:52;101299.00;;;11.80;100.00
49645;BME280;36494;50.730;-1.932;2023-05-15T02:07:17;101302.67;;;11.72;100.00
49645;BME280;36494;50.730;-1.932;2023-05-15T02:09:42;101299.57;;;11.78;100.00
49645;BME280;36494;50.730;-1.932;2023-05-15T02:12:08;101298.24;;;11.77;100.00
49645;BME280;36494;50.730;-1.932;2023-05-15T02:14:34;101297.62;;;11.74;100.00
49645;BME280;36494;50.730;-1.932;2023-05-15T02:16:58;101299.19;;;11.70;100.00
49645;BME280;36494;50.730;-1.932;2023-05-15T02:19:24;101299.98;;;11.76;100.00
49645;BME280;36494;50.730;-1.932;2023-05-15T02:21:49;101298.57;;;11.74;100.00
49645;BME280;36494;50.730;-1.932;2023-05-15T02:24:14;101300.09;;;11.77;100.00
49645;BME280;36494;50.730;-1.932;2023-05-15T02:26:44;101299.98;;;11.83;100.00
49645;BME280;36494;50.730;-1.932;2023-05-15T02:29:12;101302.86;;;11.86;100.00
49645;BME280;36494;50.730;-1.932;2023-05-15T02:31:34;101301.97;;;11.89;100.00
49645;BME280;36494;50.730;-1.932;2023-05-15T02:34:03;101303.13;;;11.83;100.00
49645;BME280;36494;50.730;-1.932;2023-05-15T02:36:24;101304.84;;;11.78;100.00
49645;BME280;36494;50.730;-1.932;2023-05-15T02:38:51;101307.56;;;11.85;100.00
49645;BME280;36494;50.730;-1.932;2023-05-15T02:41:12;101311.95;;;11.88;100.00
49645;BME280;36494;50.730;-1.932;2023-05-15T02:43:38;101313.06;;;11.88;100.00
49645;BME280;36494;50.730;-1.932;2023-05-15T02:46:02;101309.49;;;11.81;100.00
49645;BME280;36494;50.730;-1.932;2023-05-15T02:48:28;101302.88;;;11.83;100.00
49645;BME280;36494;50.730;-1.932;2023-05-15T02:50:53;101308.37;;;11.81;100.00
49645;BME280;36494;50.730;-1.932;2023-05-15T02:53:18;101305.39;;;11.78;100.00
49645;BME280;36494;50.730;-1.932;2023-05-15T02:55:44;101307.42;;;11.76;100.00
49645;BME280;36494;50.730;-1.932;2023-05-15T02:58:09;101306.58;;;11.73;100.00
49645;BME280;36494;50.730;-1.932;2023-05-15T03:00:34;101310.75;;;11.75;100.00
49645;BME280;36494;50.730;-1.932;2023-05-15T03:03:00;101308.93;;;11.76;100.00
49645;BME280;36494;50.730;-1.932;2023-05-15T03:05:25;101309.95;;;11.71;100.00
49645;BME280;36494;50.730;-1.932;2023-05-15T03:07:50;101316.70;;;11.66;100.00
49645;BME280;36494;50.730;-1.932;2023-05-15T03:10:16;101320.45;;;11.66;100.00
49645;BME280;36494;50.730;-1.932;2023-05-15T03:12:41;101321.91;;;11.63;100.00
49645;BME280;36494;50.730;-1.932;2023-05-15T03:15:07;101321.59;;;11.52;100.00
49645;BME280;36494;50.730;-1.932;2023-05-15T03:17:32;101324.98;;;11.47;100.00
49645;BME280;36494;50.730;-1.932;2023-05-15T03:19:57;101328.47;;;11.50;100.00
49645;BME280;36494;50.730;-1.932;2023-05-15T03:22:22;101329.18;;;11.49;100.00
49645;BME280;36494;50.730;-1.932;2023-05-15T03:24:48;101331.31;;;11.48;100.00
49645;BME280;36494;50.730;-1.932;2023-05-15T03:27:13;101333.65;;;11.43;100.00
49645;BME280;36494;50.730;-1.932;2023-05-15T03:29:38;101338.23;;;11.40;100.00
49645;BME280;36494;50.730;-1.932;2023-05-15T03:32:04;101338.72;;;11.38;100.00
49645;BME280;36494;50.730;-1.932;2023-05-15T03:34:29;101338.95;;;11.35;100.00
49645;BME280;36494;50.730;-1.932;2023-05-15T03:36:54;101337.66;;;11.37;100.00
49645;BME280;36494;50.730;-1.932;2023-05-15T03:39:20;101338.86;;;11.25;100.00
49645;BME280;36494;50.730;-1.932;2023-05-15T03:41:45;101340.52;;;11.22;100.00
49645;BME280;36494;50.730;-1.932;2023-05-15T03:44:11;101336.19;;;11.20;100.00
49645;BME280;36494;50.730;-1.932;2023-05-15T03:46:36;101335.87;;;11.24;100.00
49645;BME280;36494;50.730;-1.932;2023-05-15T03:49:01;101336.11;;;11.23;100.00
49645;BME280;36494;50.730;-1.932;2023-05-15T03:51:27;101340.73;;;11.24;100.00
49645;BME280;36494;50.730;-1.932;2023-05-15T03:53:52;101341.85;;;11.19;100.00
49645;BME280;36494;50.730;-1.932;2023-05-15T03:56:17;101342.01;;;11.16;100.00
49645;BME280;36494;50.730;-1.932;2023-05-15T03:58:43;101341.52;;;11.15;100.00
49645;BME280;36494;50.730;-1.932;2023-05-15T04:01:08;101344.37;;;11.14;100.00
49645;BME280;36494;50.730;-1.932;2023-05-15T04:03:34;101343.40;;;11.07;100.00
49645;BME280;36494;50.730;-1.932;2023-05-15T04:05:59;101349.11;;;11.04;100.00
49645;BME280;36494;50.730;-1.932;2023-05-15T04:08:24;101347.93;;;11.01;100.00
49645;BME280;36494;50.730;-1.932;2023-05-15T04:10:50;101349.17;;;11.03;100.00
49645;BME280;36494;50.730;-1.932;2023-05-15T04:13:15;101350.08;;;10.92;100.00
49645;BME280;36494;50.730;-1.932;2023-05-15T04:15:40;101346.45;;;10.91;100.00
49645;BME280;36494;50.730;-1.932;2023-05-15T04:18:05;101347.60;;;10.86;100.00
49645;BME280;36494;50.730;-1.932;2023-05-15T04:20:30;101346.43;;;10.83;100.00
49645;BME280;36494;50.730;-1.932;2023-05-15T04:22:56;101343.71;;;10.81;100.00
49645;BME280;36494;50.730;-1.932;2023-05-15T04:25:21;101343.39;;;10.65;100.00
49645;BME280;36494;50.730;-1.932;2023-05-15T04:27:46;101346.22;;;10.63;100.00
49645;BME280;36494;50.730;-1.932;2023-05-15T04:30:12;101349.71;;;10.57;100.00
49645;BME280;36494;50.730;-1.932;2023-05-15T04:32:38;101348.52;;;10.52;100.00
49645;BME280;36494;50.730;-1.932;2023-05-15T04:35:04;101353.23;;;10.50;100.00
49645;BME280;36494;50.730;-1.932;2023-05-15T04:37:28;101352.56;;;10.50;100.00
49645;BME280;36494;50.730;-1.932;2023-05-15T04:39:53;101362.45;;;10.47;100.00
49645;BME280;36494;50.730;-1.932;2023-05-15T04:42:19;101362.78;;;10.47;100.00
49645;BME280;36494;50.730;-1.932;2023-05-15T04:44:44;101362.37;;;10.43;100.00
49645;BME280;36494;50.730;-1.932;2023-05-15T04:47:09;101361.72;;;10.39;100.00
49645;BME280;36494;50.730;-1.932;2023-05-15T04:49:35;101362.19;;;10.36;100.00
49645;BME280;36494;50.730;-1.932;2023-05-15T04:52:00;101362.98;;;10.38;100.00
49645;BME280;36494;50.730;-1.932;2023-05-15T04:54:26;101366.68;;;10.40;100.00
49645;BME280;36494;50.730;-1.932;2023-05-15T04:56:51;101363.18;;;10.38;100.00
49645;BME280;36494;50.730;-1.932;2023-05-15T04:59:16;101363.82;;;10.39;100.00
49645;BME280;36494;50.730;-1.932;2023-05-15T05:01:42;101367.39;;;10.33;100.00
49645;BME280;36494;50.730;-1.932;2023-05-15T05:04:07;101370.00;;;10.36;100.00
49645;BME280;36494;50.730;-1.932;2023-05-15T05:06:32;101373.73;;;10.31;100.00
49645;BME280;36494;50.730;-1.932;2023-05-15T05:08:57;101375.44;;;10.29;100.00
49645;BME280;36494;50.730;-1.932;2023-05-15T05:11:23;101381.90;;;10.29;100.00
49645;BME280;36494;50.730;-1.932;2023-05-15T05:13:48;101378.67;;;10.20;100.00
49645;BME280;36494;50.730;-1.932;2023-05-15T05:16:14;101383.16;;;10.20;100.00
49645;BME280;36494;50.730;-1.932;2023-05-15T05:18:39;101387.03;;;10.14;100.00
49645;BME280;36494;50.730;-1.932;2023-05-15T05:21:04;101387.54;;;10.12;100.00
49645;BME280;36494;50.730;-1.932;2023-05-15T05:23:29;101388.50;;;10.09;100.00
49645;BME280;36494;50.730;-1.932;2023-05-15T05:25:55;101384.40;;;9.98;100.00
49645;BME280;36494;50.730;-1.932;2023-05-15T05:28:21;101386.68;;;10.00;100.00
49645;BME280;36494;50.730;-1.932;2023-05-15T05:30:46;101391.36;;;9.98;100.00
49645;BME280;36494;50.730;-1.932;2023-05-15T05:33:11;101389.00;;;9.99;100.00
49645;BME280;36494;50.730;-1.932;2023-05-15T05:35:36;101394.91;;;9.89;100.00
49645;BME280;36494;50.730;-1.932;2023-05-15T05:38:02;101397.08;;;9.87;100.00
49645;BME280;36494;50.730;-1.932;2023-05-15T05:40:27;101400.06;;;9.94;100.00
49645;BME280;36494;50.730;-1.932;2023-05-15T05:42:52;101403.27;;;9.96;100.00
49645;BME280;36494;50.730;-1.932;2023-05-15T05:45:18;101409.54;;;9.87;100.00
49645;BME280;36494;50.730;-1.932;2023-05-15T05:47:43;101416.59;;;9.88;100.00
49645;BME280;36494;50.730;-1.932;2023-05-15T05:50:09;101421.62;;;9.93;100.00
49645;BME280;36494;50.730;-1.932;2023-05-15T05:52:34;101427.49;;;9.90;100.00
49645;BME280;36494;50.730;-1.932;2023-05-15T05:54:59;101433.91;;;9.86;100.00
49645;BME280;36494;50.730;-1.932;2023-05-15T05:57:25;101436.76;;;9.88;100.00
49645;BME280;36494;50.730;-1.932;2023-05-15T05:59:50;101441.95;;;9.93;100.00
49645;BME280;36494;50.730;-1.932;2023-05-15T06:02:15;101439.72;;;9.89;100.00
49645;BME280;36494;50.730;-1.932;2023-05-15T06:04:40;101444.50;;;9.93;100.00
49645;BME280;36494;50.730;-1.932;2023-05-15T06:07:06;101443.76;;;9.89;100.00
49645;BME280;36494;50.730;-1.932;2023-05-15T06:09:31;101449.62;;;9.95;100.00
49645;BME280;36494;50.730;-1.932;2023-05-15T06:11:56;101447.97;;;9.94;100.00
49645;BME280;36494;50.730;-1.932;2023-05-15T06:14:21;101449.15;;;9.90;100.00
49645;BME280;36494;50.730;-1.932;2023-05-15T06:16:47;101452.59;;;9.95;100.00
49645;BME280;36494;50.730;-1.932;2023-05-15T06:19:12;101450.90;;;9.91;100.00
49645;BME280;36494;50.730;-1.932;2023-05-15T06:21:38;101458.64;;;9.86;100.00
49645;BME280;36494;50.730;-1.932;2023-05-15T06:24:03;101463.27;;;9.86;100.00
49645;BME280;36494;50.730;-1.932;2023-05-15T06:26:29;101463.33;;;9.85;100.00
49645;BME280;36494;50.730;-1.932;2023-05-15T06:28:54;101473.58;;;9.82;100.00
49645;BME280;36494;50.730;-1.932;2023-05-15T06:31:19;101475.71;;;9.81;100.00
49645;BME280;36494;50.730;-1.932;2023-05-15T06:33:44;101479.08;;;9.84;100.00
49645;BME280;36494;50.730;-1.932;2023-05-15T06:36:10;101477.49;;;9.85;100.00
49645;BME280;36494;50.730;-1.932;2023-05-15T06:38:35;101477.02;;;9.86;100.00
49645;BME280;36494;50.730;-1.932;2023-05-15T06:41:00;101475.40;;;9.85;100.00
49645;BME280;36494;50.730;-1.932;2023-05-15T06:43:26;101477.56;;;9.76;100.00
49645;BME280;36494;50.730;-1.932;2023-05-15T06:45:51;101484.93;;;9.78;100.00
49645;BME280;36494;50.730;-1.932;2023-05-15T06:48:16;101484.40;;;9.83;100.00
49645;BME280;36494;50.730;-1.932;2023-05-15T06:50:42;101483.93;;;9.75;100.00
49645;BME280;36494;50.730;-1.932;2023-05-15T06:53:07;101486.79;;;9.75;100.00
49645;BME280;36494;50.730;-1.932;2023-05-15T06:55:32;101483.30;;;9.75;100.00
49645;BME280;36494;50.730;-1.932;2023-05-15T06:57:58;101489.45;;;9.86;100.00
49645;BME280;36494;50.730;-1.932;2023-05-15T07:00:24;101493.84;;;9.79;100.00
49645;BME280;36494;50.730;-1.932;2023-05-15T07:02:50;101497.17;;;9.87;100.00
49645;BME280;36494;50.730;-1.932;2023-05-15T07:05:15;101501.49;;;9.85;100.00
49645;BME280;36494;50.730;-1.932;2023-05-15T07:07:41;101501.13;;;9.77;100.00
49645;BME280;36494;50.730;-1.932;2023-05-15T07:10:08;101500.52;;;9.70;100.00
49645;BME280;36494;50.730;-1.932;2023-05-15T07:12:31;101506.33;;;9.76;100.00
49645;BME280;36494;50.730;-1.932;2023-05-15T07:14:57;101505.66;;;9.78;100.00
49645;BME280;36494;50.730;-1.932;2023-05-15T07:17:22;101501.80;;;9.79;100.00
49645;BME280;36494;50.730;-1.932;2023-05-15T07:19:48;101506.33;;;9.83;100.00
49645;BME280;36494;50.730;-1.932;2023-05-15T07:22:13;101509.93;;;9.82;100.00
49645;BME280;36494;50.730;-1.932;2023-05-15T07:24:38;101513.99;;;9.83;100.00
49645;BME280;36494;50.730;-1.932;2023-05-15T07:27:04;101517.23;;;9.88;100.00
49645;BME280;36494;50.730;-1.932;2023-05-15T07:29:29;101517.20;;;9.94;100.00
49645;BME280;36494;50.730;-1.932;2023-05-15T07:31:54;101519.76;;;9.92;100.00
49645;BME280;36494;50.730;-1.932;2023-05-15T07:34:19;101519.04;;;9.94;100.00
49645;BME280;36494;50.730;-1.932;2023-05-15T07:36:45;101525.04;;;10.00;100.00
49645;BME280;36494;50.730;-1.932;2023-05-15T07:39:10;101518.05;;;9.92;100.00
49645;BME280;36494;50.730;-1.932;2023-05-15T07:41:36;101511.65;;;9.95;100.00
49645;BME280;36494;50.730;-1.932;2023-05-15T07:44:01;101516.35;;;9.97;100.00
49645;BME280;36494;50.730;-1.932;2023-05-15T07:46:26;101518.42;;;9.99;100.00
49645;BME280;36494;50.730;-1.932;2023-05-15T07:48:51;101519.15;;;10.01;100.00
49645;BME280;36494;50.730;-1.932;2023-05-15T07:51:17;101522.40;;;10.06;100.00
49645;BME280;36494;50.730;-1.932;2023-05-15T07:53:42;101514.92;;;10.07;100.00
49645;BME280;36494;50.730;-1.932;2023-05-15T07:56:07;101521.33;;;10.05;100.00
49645;BME280;36494;50.730;-1.932;2023-05-15T07:58:33;101521.91;;;10.10;100.00
49645;BME280;36494;50.730;-1.932;2023-05-15T08:00:58;101524.01;;;10.15;100.00
49645;BME280;36494;50.730;-1.932;2023-05-15T08:03:23;101522.58;;;10.24;100.00
49645;BME280;36494;50.730;-1.932;2023-05-15T08:05:49;101523.59;;;10.30;100.00
49645;BME280;36494;50.730;-1.932;2023-05-15T08:08:14;101523.49;;;10.34;100.00
49645;BME280;36494;50.730;-1.932;2023-05-15T08:10:39;101519.12;;;10.38;100.00
49645;BME280;36494;50.730;-1.932;2023-05-15T08:13:05;101524.67;;;10.45;100.00
49645;BME280;36494;50.730;-1.932;2023-05-15T08:15:30;101525.75;;;10.49;100.00
49645;BME280;36494;50.730;-1.932;2023-05-15T08:17:55;101530.44;;;10.54;100.00
49645;BME280;36494;50.730;-1.932;2023-05-15T08:20:21;101528.85;;;10.55;100.00
49645;BME280;36494;50.730;-1.932;2023-05-15T08:22:46;101527.71;;;10.60;100.00
49645;BME280;36494;50.730;-1.932;2023-05-15T08:25:11;101530.08;;;10.62;100.00
49645;BME280;36494;50.730;-1.932;2023-05-15T08:27:36;101526.01;;;10.62;100.00
49645;BME280;36494;50.730;-1.932;2023-05-15T08:30:02;101525.31;;;10.63;100.00
49645;BME280;36494;50.730;-1.932;2023-05-15T08:32:27;101528.45;;;10.70;100.00
49645;BME280;36494;50.730;-1.932;2023-05-15T08:34:52;101525.65;;;10.76;100.00
49645;BME280;36494;50.730;-1.932;2023-05-15T08:37:18;101533.57;;;10.78;100.00
49645;BME280;36494;50.730;-1.932;2023-05-15T08:39:43;101533.18;;;10.87;100.00
49645;BME280;36494;50.730;-1.932;2023-05-15T08:42:14;101534.86;;;10.92;100.00
49645;BME280;36494;50.730;-1.932;2023-05-15T08:44:34;101532.65;;;10.96;100.00
49645;BME280;36494;50.730;-1.932;2023-05-15T08:46:59;101528.14;;;11.06;100.00
49645;BME280;36494;50.730;-1.932;2023-05-15T08:49:29;101530.65;;;11.09;100.00
49645;BME280;36494;50.730;-1.932;2023-05-15T08:51:50;101527.01;;;11.10;100.00
49645;BME280;36494;50.730;-1.932;2023-05-15T08:54:16;101527.92;;;11.23;100.00
49645;BME280;36494;50.730;-1.932;2023-05-15T08:56:41;101528.48;;;11.23;100.00
49645;BME280;36494;50.730;-1.932;2023-05-15T08:59:06;101528.30;;;11.29;100.00
49645;BME280;36494;50.730;-1.932;2023-05-15T09:01:32;101531.75;;;11.37;100.00
49645;BME280;36494;50.730;-1.932;2023-05-15T09:03:57;101531.46;;;11.42;100.00
49645;BME280;36494;50.730;-1.932;2023-05-15T09:06:23;101532.36;;;11.47;100.00
49645;BME280;36494;50.730;-1.932;2023-05-15T09:08:48;101531.64;;;11.57;100.00
49645;BME280;36494;50.730;-1.932;2023-05-15T09:11:13;101548.55;;;11.69;100.00
49645;BME280;36494;50.730;-1.932;2023-05-15T09:13:38;101544.02;;;11.69;100.00
49645;BME280;36494;50.730;-1.932;2023-05-15T09:16:03;101541.40;;;11.78;100.00
49645;BME280;36494;50.730;-1.932;2023-05-15T09:18:29;101547.09;;;11.80;100.00
49645;BME280;36494;50.730;-1.932;2023-05-15T09:20:54;101545.59;;;11.84;100.00
49645;BME280;36494;50.730;-1.932;2023-05-15T09:23:24;101547.81;;;11.90;100.00
49645;BME280;36494;50.730;-1.932;2023-05-15T09:25:44;101544.46;;;11.93;100.00
49645;BME280;36494;50.730;-1.932;2023-05-15T09:28:23;101548.21;;;12.02;100.00
49645;BME280;36494;50.730;-1.932;2023-05-15T09:30:37;101545.96;;;12.09;100.00
49645;BME280;36494;50.730;-1.932;2023-05-15T09:33:01;101548.09;;;12.17;100.00
49645;BME280;36494;50.730;-1.932;2023-05-15T09:35:28;101539.52;;;12.28;100.00
49645;BME280;36494;50.730;-1.932;2023-05-15T09:37:57;101544.90;;;12.38;100.00
49645;BME280;36494;50.730;-1.932;2023-05-15T09:40:18;101542.37;;;12.33;100.00
49645;BME280;36494;50.730;-1.932;2023-05-15T09:42:50;101549.11;;;12.40;100.00
49645;BME280;36494;50.730;-1.932;2023-05-15T09:45:16;101543.94;;;12.43;100.00
49645;BME280;36494;50.730;-1.932;2023-05-15T09:47:33;101545.21;;;12.41;100.00
49645;BME280;36494;50.730;-1.932;2023-05-15T09:49:58;101545.36;;;12.44;100.00
49645;BME280;36494;50.730;-1.932;2023-05-15T09:52:24;101548.18;;;12.57;100.00
49645;BME280;36494;50.730;-1.932;2023-05-15T09:54:49;101547.64;;;12.76;100.00
49645;BME280;36494;50.730;-1.932;2023-05-15T09:57:14;101547.67;;;13.11;100.00
49645;BME280;36494;50.730;-1.932;2023-05-15T09:59:43;101545.92;;;13.33;100.00
49645;BME280;36494;50.730;-1.932;2023-05-15T10:02:06;101549.58;;;13.41;100.00
49645;BME280;36494;50.730;-1.932;2023-05-15T10:04:33;101543.30;;;13.73;100.00
49645;BME280;36494;50.730;-1.932;2023-05-15T10:06:57;101545.69;;;13.96;100.00
49645;BME280;36494;50.730;-1.932;2023-05-15T10:09:28;101551.23;;;14.21;100.00
49645;BME280;36494;50.730;-1.932;2023-05-15T10:11:50;101551.06;;;14.37;100.00
49645;BME280;36494;50.730;-1.932;2023-05-15T10:14:14;101554.71;;;14.41;100.00
49645;BME280;36494;50.730;-1.932;2023-05-15T10:16:39;101546.86;;;14.59;100.00
49645;BME280;36494;50.730;-1.932;2023-05-15T10:19:05;101555.27;;;14.85;100.00
49645;BME280;36494;50.730;-1.932;2023-05-15T10:21:31;101548.37;;;14.87;100.00
49645;BME280;36494;50.730;-1.932;2023-05-15T10:23:56;101545.61;;;14.89;100.00
49645;BME280;36494;50.730;-1.932;2023-05-15T10:26:22;101558.84;;;14.66;100.00
49645;BME280;36494;50.730;-1.932;2023-05-15T10:28:45;101546.73;;;14.50;100.00
49645;BME280;36494;50.730;-1.932;2023-05-15T10:31:11;101544.30;;;14.44;100.00
49645;BME280;36494;50.730;-1.932;2023-05-15T10:33:38;101545.48;;;14.46;100.00
49645;BME280;36494;50.730;-1.932;2023-05-15T10:36:02;101547.83;;;14.78;100.00
49645;BME280;36494;50.730;-1.932;2023-05-15T10:38:28;101545.08;;;15.01;100.00
49645;BME280;36494;50.730;-1.932;2023-05-15T10:40:54;101547.10;;;15.24;100.00
49645;BME280;36494;50.730;-1.932;2023-05-15T10:43:19;101548.46;;;15.25;100.00
49645;BME280;36494;50.730;-1.932;2023-05-15T10:45:43;101548.40;;;15.36;100.00
49645;BME280;36494;50.730;-1.932;2023-05-15T10:48:09;101549.09;;;15.21;100.00
49645;BME280;36494;50.730;-1.932;2023-05-15T10:50:35;101546.36;;;15.56;100.00
49645;BME280;36494;50.730;-1.932;2023-05-15T10:52:59;101551.49;;;15.53;98.36
49645;BME280;36494;50.730;-1.932;2023-05-15T10:55:24;101556.15;;;15.26;100.00
49645;BME280;36494;50.730;-1.932;2023-05-15T10:57:50;101554.33;;;15.16;100.00
49645;BME280;36494;50.730;-1.932;2023-05-15T11:00:24;101557.31;;;15.16;100.00
49645;BME280;36494;50.730;-1.932;2023-05-15T11:02:40;101558.35;;;15.18;100.00
49645;BME280;36494;50.730;-1.932;2023-05-15T11:05:06;101564.97;;;15.20;100.00
49645;BME280;36494;50.730;-1.932;2023-05-15T11:07:31;101561.19;;;15.24;100.00
49645;BME280;36494;50.730;-1.932;2023-05-15T11:09:57;101561.40;;;15.73;100.00
49645;BME280;36494;50.730;-1.932;2023-05-15T11:12:22;101565.77;;;15.68;100.00
49645;BME280;36494;50.730;-1.932;2023-05-15T11:17:13;101571.94;;;15.89;92.73
49645;BME280;36494;50.730;-1.932;2023-05-15T11:22:15;101570.15;;;16.42;89.73
49645;BME280;36494;50.730;-1.932;2023-05-15T11:24:29;101568.32;;;16.36;91.15
49645;BME280;36494;50.730;-1.932;2023-05-15T11:26:59;101577.38;;;16.07;92.46
49645;BME280;36494;50.730;-1.932;2023-05-15T11:29:19;101577.61;;;15.78;90.63
49645;BME280;36494;50.730;-1.932;2023-05-15T11:31:44;101574.32;;;15.62;91.85
49645;BME280;36494;50.730;-1.932;2023-05-15T11:34:10;101579.55;;;15.77;89.02
49645;BME280;36494;50.730;-1.932;2023-05-15T11:36:36;101576.86;;;16.27;85.96
49645;BME280;36494;50.730;-1.932;2023-05-15T11:39:01;101573.75;;;16.18;83.75
49645;BME280;36494;50.730;-1.932;2023-05-15T11:41:30;101580.46;;;16.38;88.97
49645;BME280;36494;50.730;-1.932;2023-05-15T11:43:51;101571.77;;;16.43;85.33
49645;BME280;36494;50.730;-1.932;2023-05-15T11:46:17;101575.11;;;16.52;88.36
49645;BME280;36494;50.730;-1.932;2023-05-15T11:48:43;101579.33;;;16.19;86.81
49645;BME280;36494;50.730;-1.932;2023-05-15T11:51:16;101578.41;;;16.49;89.00
49645;BME280;36494;50.730;-1.932;2023-05-15T11:53:34;101580.06;;;16.89;92.13
49645;BME280;36494;50.730;-1.932;2023-05-15T11:55:58;101574.40;;;17.12;86.18
49645;BME280;36494;50.730;-1.932;2023-05-15T11:58:25;101579.13;;;17.15;93.30
49645;BME280;36494;50.730;-1.932;2023-05-15T12:00:51;101574.93;;;17.57;85.51
49645;BME280;36494;50.730;-1.932;2023-05-15T12:03:16;101578.72;;;17.61;83.44
49645;BME280;36494;50.730;-1.932;2023-05-15T12:05:40;101586.94;;;17.15;83.00
49645;BME280;36494;50.730;-1.932;2023-05-15T12:08:08;101585.00;;;16.96;81.32
49645;BME280;36494;50.730;-1.932;2023-05-15T12:10:31;101581.61;;;17.04;87.67
49645;BME280;36494;50.730;-1.932;2023-05-15T12:12:57;101578.06;;;17.08;79.70
49645;BME280;36494;50.730;-1.932;2023-05-15T12:15:21;101582.80;;;16.82;77.44
49645;BME280;36494;50.730;-1.932;2023-05-15T12:17:46;101585.25;;;16.78;80.12
49645;BME280;36494;50.730;-1.932;2023-05-15T12:20:15;101578.00;;;16.80;85.32
49645;BME280;36494;50.730;-1.932;2023-05-15T12:22:37;101586.55;;;16.69;79.78
49645;BME280;36494;50.730;-1.932;2023-05-15T12:25:03;101582.03;;;16.62;80.81
49645;BME280;36494;50.730;-1.932;2023-05-15T12:27:28;101580.63;;;16.71;82.70
49645;BME280;36494;50.730;-1.932;2023-05-15T12:29:53;101572.44;;;17.12;81.70